Long Key, FL (33001)

9:41 AM EST on January 18, 2017 (GMT -0500)
MLONF1 | | Change Station

Elev 0 ft 24.84 °N, 80.86 °W | Updated 1 hour ago

Clear
Clear
73.0 °F
Feels Like 75 °F
N
8.0
Wind Variable Wind from ESE
Gusts 9.0 mph

Today
High -- | Low -- °F
--% Chance of Precip.
Yesterday
High -- | Low -- °F
Precip. -- in
Pressure 30.20 in
Visibility 10.0 miles
Clouds Few 3900 ft
Heat Index 75 °F
Dew Point 63 °F
Humidity 72%
Rainfall 0.00 in
Snow Depth Not available.
7:09 AM 5:58 PM
Waning Gibbous, 63% visible
METAR KHST 181358Z AUTO 00000KT 10SM FEW039 23/20 A3019 RMK AO2 SLP226 T02250199
Pressure 30.20 in
Visibility 10.0 miles
Clouds Few 3900 ft
Heat Index 75 °F
Dew Point 63 °F
Humidity 72%
Rainfall 0.00 in
Snow Depth Not available.
7:09 AM 5:58 PM
Waning Gibbous, 63% visible
METAR KHST 181358Z AUTO 00000KT 10SM FEW039 23/20 A3019 RMK AO2 SLP226 T02250199

Get Your Daily Forecast Email!

Thanks for signing up!

Be on the lookout for a verification email in your inbox.

You'll start receiving the daily forecast at 8 AM.

×

10-Day Weather Forecast

Almanac

Astronomy

Jan. 18, 2017 Rise Set
Actual Time
Civil Twilight
Nautical Twilight
Astronomical Twilight
Moon
Length of Visible Light
Length of Day
Tomorrow will be .
, % of the Moon is Illuminated

Today's Extremes

State Highs State Lows

Community

WunderPhotos

Upload Photos

1,962,540 photos uploaded!

WunderBlog® & News

Nearby

Air Quality

  Air Quality AQ Index Pollutant
Not available.

Snow Depth

Station Depth Elevation

Earthquake Activity

City Distance Mag. Time & Date
Minimum magnitude displayed is 2.5.

Coastal Water Temperatures

Place Temperature

Stations

Nearby Weather Stations

Station Location Temp. Windchill Dew Point Humidity Wind Precip. Elev Updated Type
                   

Watches & Warnings

There are currently no watches in effect.